aviador You're here:

LFMK Decoded Metar

Carcassonne in FRANCE
Report Time2017-09-20 16:00:00
UTC Time2017-09-20 16:25:21
Flight Rules vfr VFR
Wind280° at 08 kt
W.Decomp.*RWY 28: 8.0 kt HW 0 kt LCW
W.Rank280° ranks 1
Current wind is below 280° avg. (10.3)
Visibility9999 m
Phenomena:N/A
Clouds:N/A
Expected CloudBase > 6,400 ft AGL from Temp-Dew spread
CeilingNone
Temp22°C (ISA +8)
Dew Point06°C (36% RH)
AAT18.3°C
QNH1019 hPa
Density Alt1,270 ft
Elevation427 ft
Report Wrong Elevation
Raw Report
LFMK 201600Z AUTO 28008KT 240V320 CAVOK 22/06 Q1019 NOSIG=

Extra information for LFMK:More info

Metar Taf Metar & Taf Last 4 Metars F.Rules Stats Wind Profile Meteogram Temp Stats Airport Information Weather charts Add Link Nearby VenuesMetar ALERT Operation Metar Decoded Social comments

AudeAéroServices
Aéroprakt A-22
Husky Dealer